Time;durP1;ratioP1;P1;durP2;ratioP2;P2;SDS_P1;SDS_P2;PMS_P1;PMS_P2;Temp;Humidity;BMP_temperature;BMP_pressure;BME280_temperature;BME280_humidity;BME280_pressure;Samples;Min_cycle;Max_cycle;Signal;HPM_P1;HPM_P2
2022/05/01 00:02:05;;;;;;;17.50;15.00;;;;;;;10.05;68.93;102056.44;5078771;28;20419;-67
2022/05/01 00:04:31;;;;;;;15.90;13.60;;;;;;;10.29;68.58;102045.91;5078901;28;20236;-68
2022/05/01 00:06:57;;;;;;;15.20;13.50;;;;;;;10.13;68.11;102051.47;5079508;28;20173;-67
2022/05/01 00:09:23;;;;;;;17.00;13.80;;;;;;;10.05;68.86;102048.63;5079029;28;20176;-67
2022/05/01 00:11:48;;;;;;;20.87;13.60;;;;;;;10.10;68.92;102043.56;5078457;28;20514;-68
2022/05/01 00:14:14;;;;;;;16.90;13.80;;;;;;;10.01;68.88;102040.63;5078985;28;20164;-67
2022/05/01 00:16:40;;;;;;;14.27;12.70;;;;;;;10.07;69.04;102040.84;5078596;28;20181;-67
2022/05/01 00:19:08;;;;;;;13.90;12.40;;;;;;;9.86;69.94;102044.50;5079193;28;20567;-67
2022/05/01 00:21:34;;;;;;;16.03;14.30;;;;;;;9.84;69.79;102035.75;5078713;28;20177;-67
2022/05/01 00:23:59;;;;;;;19.57;13.07;;;;;;;9.84;69.69;102029.69;5078395;28;20572;-68
2022/05/01 00:26:24;;;;;;;13.93;12.20;;;;;;;9.70;70.00;102027.50;5078229;28;20553;-66
2022/05/01 00:28:49;;;;;;;17.33;15.20;;;;;;;9.77;69.34;102021.66;5078557;28;20161;-67
2022/05/01 00:31:16;;;;;;;16.20;13.40;;;;;;;10.02;68.80;102014.63;5077953;28;20183;-69
2022/05/01 00:36:28;;;;;;;18.27;14.43;;;;;;;9.91;69.21;102023.84;5078358;28;20442;-68
2022/05/01 00:39:03;;;;;;;19.77;13.90;;;;;;;9.77;69.58;102023.38;5078381;28;20461;-67
2022/05/01 00:41:30;;;;;;;19.13;13.93;;;;;;;9.76;69.25;102027.69;5078584;28;20421;-67
2022/05/01 00:44:15;;;;;;;20.63;15.17;;;;;;;9.79;69.86;102026.91;5078247;28;20443;-67
2022/05/01 00:46:43;;;;;;;16.20;13.80;;;;;;;9.77;69.76;102033.78;5078177;28;20454;-68
2022/05/01 00:49:11;;;;;;;18.13;15.73;;;;;;;9.60;70.11;102031.47;5078306;28;20854;-69
2022/05/01 00:51:42;;;;;;;17.20;15.43;;;;;;;9.66;70.15;102033.44;5080664;28;20430;-68
2022/05/01 00:54:08;;;;;;;17.23;15.10;;;;;;;9.42;70.72;102031.72;5078215;28;20408;-69
2022/05/01 00:56:35;;;;;;;16.07;14.37;;;;;;;9.57;71.20;102033.13;5078260;28;20403;-69
2022/05/01 00:59:01;;;;;;;18.20;14.80;;;;;;;9.85;69.99;102036.63;5078144;28;20444;-69
2022/05/01 01:01:26;;;;;;;18.50;14.63;;;;;;;9.46;70.38;102034.44;5078053;28;20427;-67
2022/05/01 01:03:53;;;;;;;17.73;14.17;;;;;;;9.41;71.05;102035.16;5078434;28;20234;-67
2022/05/01 01:06:18;;;;;;;17.97;15.70;;;;;;;9.40;71.38;102027.31;5077913;28;20204;-67
2022/05/01 01:08:44;;;;;;;17.43;15.23;;;;;;;9.22;72.42;102032.75;5078046;28;20419;-67
2022/05/01 01:11:09;;;;;;;17.33;15.53;;;;;;;9.31;72.06;102034.78;5078458;28;20176;-67
2022/05/01 01:13:34;;;;;;;22.33;16.57;;;;;;;9.36;72.12;102036.75;5077809;28;20168;-68
2022/05/01 01:15:59;;;;;;;19.10;17.20;;;;;;;9.35;71.92;102032.34;5078288;28;20226;-67
2022/05/01 01:18:25;;;;;;;19.43;16.23;;;;;;;9.26;71.98;102039.84;5078212;28;20545;-67
2022/05/01 01:20:51;;;;;;;20.77;16.50;;;;;;;9.34;72.23;102046.19;5077816;28;20220;-68
2022/05/01 01:23:17;;;;;;;21.97;16.43;;;;;;;9.50;71.00;102041.50;5077814;28;20858;-67
2022/05/01 01:25:42;;;;;;;19.93;17.13;;;;;;;9.43;71.81;102041.31;5078253;28;20446;-68
2022/05/01 01:28:08;;;;;;;22.80;16.67;;;;;;;9.30;71.69;102041.72;5077362;28;20418;-68
2022/05/01 01:33:21;;;;;;;17.30;15.60;;;;;;;9.20;72.09;102053.50;5077977;28;20456;-66
2022/05/01 01:35:49;;;;;;;18.17;16.27;;;;;;;9.13;71.72;102045.41;5077153;28;20410;-66
2022/05/01 01:38:14;;;;;;;23.13;16.50;;;;;;;9.04;72.88;102054.66;5077766;28;20175;-68
2022/05/01 01:40:43;;;;;;;18.67;16.57;;;;;;;9.08;72.74;102048.75;5081563;28;20411;-67
2022/05/01 01:43:10;;;;;;;19.47;16.50;;;;;;;9.17;72.82;102055.09;5086807;28;20166;-67
2022/05/01 01:45:35;;;;;;;18.50;16.30;;;;;;;8.96;72.70;102055.19;5082626;28;20482;-66
2022/05/01 01:48:10;;;;;;;20.27;16.37;;;;;;;9.23;71.78;102053.63;5081445;28;20846;-67
2022/05/01 01:50:35;;;;;;;17.60;15.90;;;;;;;9.23;72.14;102050.13;5081181;28;20195;-66
2022/05/01 01:53:01;;;;;;;18.37;16.47;;;;;;;9.21;72.20;102054.38;5081223;28;20495;-68
2022/05/01 01:55:26;;;;;;;24.87;15.70;;;;;;;9.12;71.82;102056.66;5081378;28;20160;-67
2022/05/01 01:57:52;;;;;;;19.50;16.73;;;;;;;9.28;71.84;102048.56;5081133;28;20580;-67
2022/05/01 02:00:17;;;;;;;18.00;16.20;;;;;;;9.16;72.35;102055.94;5081011;28;20184;-68
2022/05/01 02:02:42;;;;;;;18.77;16.33;;;;;;;9.24;72.13;102058.00;5081322;28;20501;-68
2022/05/01 02:05:08;;;;;;;17.70;15.93;;;;;;;9.22;71.99;102057.03;5080215;28;20204;-68
2022/05/01 02:07:34;;;;;;;16.63;14.93;;;;;;;9.44;71.51;102056.13;5080201;28;20185;-67
2022/05/01 02:10:00;;;;;;;18.83;15.87;;;;;;;9.10;72.37;102049.66;5081357;28;20442;-67
2022/05/01 02:12:25;;;;;;;17.07;15.37;;;;;;;9.35;71.25;102044.47;5080829;28;20165;-68
2022/05/01 02:14:51;;;;;;;18.90;14.83;;;;;;;9.56;70.42;102041.75;5080627;28;20876;-68
2022/05/01 02:17:16;;;;;;;16.23;14.13;;;;;;;9.48;70.51;102040.59;5081326;28;20165;-68
2022/05/01 02:19:42;;;;;;;23.63;14.73;;;;;;;9.47;70.51;102046.63;5080671;28;20180;-68
2022/05/01 02:22:07;;;;;;;20.47;14.83;;;;;;;9.76;70.23;102051.13;5080319;28;20250;-67
2022/05/01 02:24:33;;;;;;;15.73;14.00;;;;;;;9.77;69.86;102042.47;5081151;28;20204;-67
2022/05/01 02:26:59;;;;;;;16.10;13.63;;;;;;;9.93;69.16;102046.50;5080669;28;20250;-67
2022/05/01 02:29:25;;;;;;;16.13;14.30;;;;;;;9.93;68.81;102045.59;5080525;28;20457;-68
2022/05/01 02:31:53;;;;;;;14.47;12.67;;;;;;;9.95;68.64;102044.81;5081012;28;20480;-69
2022/05/01 02:34:20;;;;;;;15.40;12.93;;;;;;;9.54;69.65;102044.31;5079852;28;20403;-69
2022/05/01 02:36:45;;;;;;;17.40;15.43;;;;;;;9.94;69.36;102043.06;5080458;28;20419;-67
2022/05/01 02:39:11;;;;;;;17.37;13.63;;;;;;;9.74;69.87;102039.78;5081053;28;20410;-67
2022/05/01 02:41:36;;;;;;;16.37;12.93;;;;;;;9.76;69.37;102048.50;5080385;28;20437;-68
2022/05/01 02:44:02;;;;;;;14.80;12.30;;;;;;;9.83;69.55;102048.75;5079831;28;20164;-69
2022/05/01 02:46:28;;;;;;;16.40;13.30;;;;;;;9.93;69.10;102050.78;5079661;28;20223;-67
2022/05/01 02:48:53;;;;;;;13.83;12.07;;;;;;;9.67;70.01;102053.41;5080419;28;20812;-67
2022/05/01 02:51:18;;;;;;;14.00;12.23;;;;;;;9.87;69.56;102055.81;5079537;28;20169;-67
2022/05/01 02:53:44;;;;;;;14.40;11.70;;;;;;;9.84;69.46;102045.31;5080008;28;20173;-67
2022/05/01 02:56:09;;;;;;;15.33;12.70;;;;;;;9.53;70.37;102033.84;5080325;28;20227;-67
2022/05/01 02:58:35;;;;;;;16.33;11.30;;;;;;;9.39;70.64;102035.94;5080565;28;20581;-68
2022/05/01 03:01:00;;;;;;;19.43;11.90;;;;;;;9.31;71.36;102027.88;5079981;28;20177;-68
2022/05/01 03:03:25;;;;;;;17.27;11.80;;;;;;;9.35;71.63;102037.56;5079965;28;20173;-68
2022/05/01 03:05:52;;;;;;;14.13;10.87;;;;;;;9.56;71.30;102034.81;5080162;28;20181;-67
2022/05/01 03:08:17;;;;;;;12.20;10.90;;;;;;;9.96;69.56;102035.28;5080082;28;20164;-67
2022/05/01 03:10:43;;;;;;;12.13;10.40;;;;;;;9.93;68.93;102037.78;5079941;28;20483;-68
2022/05/01 03:13:08;;;;;;;14.47;11.07;;;;;;;9.37;70.63;102041.09;5079519;28;20211;-68
2022/05/01 03:15:34;;;;;;;16.60;11.37;;;;;;;9.84;69.52;102030.56;5079293;28;20256;-67
2022/05/01 03:23:47;;;;;;;14.43;10.70;;;;;;;9.89;69.76;102038.50;5038037;28;20688;-67
2022/05/01 03:26:12;;;;;;;12.37;10.10;;;;;;;9.61;70.15;102032.38;5038185;28;20413;-67
2022/05/01 03:28:37;;;;;;;11.87;10.27;;;;;;;9.54;71.17;102025.16;5057151;28;20199;-68
2022/05/01 03:31:08;;;;;;;14.70;11.17;;;;;;;9.58;70.58;102027.09;5080156;28;20545;-67
2022/05/01 03:33:34;;;;;;;12.60;10.57;;;;;;;9.81;70.10;102029.56;5079312;28;20179;-68
2022/05/01 03:36:00;;;;;;;12.30;10.50;;;;;;;9.73;69.69;102034.53;5079932;28;20408;-68
2022/05/01 03:38:25;;;;;;;15.47;10.97;;;;;;;9.91;69.85;102032.50;5078663;28;20901;-68
2022/05/01 03:40:50;;;;;;;15.27;11.23;;;;;;;9.69;69.76;102024.84;5078997;28;20173;-68
2022/05/01 03:43:18;;;;;;;12.20;9.93;;;;;;;9.90;69.48;102029.88;5078542;28;20211;-67
2022/05/01 03:45:44;;;;;;;14.73;10.63;;;;;;;10.06;69.13;102032.13;5078701;28;20594;-68
2022/05/01 03:48:11;;;;;;;14.73;10.53;;;;;;;9.95;69.56;102033.50;5078663;28;20446;-66
2022/05/01 03:50:37;;;;;;;10.57;9.40;;;;;;;10.02;69.59;102030.25;5078720;28;20505;-67
2022/05/01 03:53:04;;;;;;;10.83;9.80;;;;;;;10.22;68.65;102030.03;5078636;28;20435;-67
2022/05/01 03:55:30;;;;;;;12.00;9.37;;;;;;;9.71;69.58;102028.38;5078522;28;20169;-68
2022/05/01 03:57:57;;;;;;;14.17;10.10;;;;;;;9.93;69.91;102032.56;5079077;28;20582;-67
2022/05/01 04:00:24;;;;;;;12.30;9.30;;;;;;;10.14;68.84;102034.13;5078513;28;20455;-67
2022/05/01 04:02:49;;;;;;;13.60;10.33;;;;;;;10.00;69.24;102021.53;5078488;28;20461;-67
2022/05/01 04:05:15;;;;;;;15.30;9.97;;;;;;;10.17;68.53;102023.78;5078518;28;20450;-67
2022/05/01 04:07:41;;;;;;;12.60;9.63;;;;;;;9.87;69.44;102034.97;5078732;28;20188;-67
2022/05/01 04:10:07;;;;;;;11.87;10.73;;;;;;;9.83;70.28;102030.50;5078256;28;20169;-68
2022/05/01 04:12:40;;;;;;;14.50;9.80;;;;;;;9.77;70.72;102029.47;5078639;28;20408;-67
2022/05/01 04:15:09;;;;;;;10.83;9.50;;;;;;;9.85;69.87;102029.72;5078652;28;20411;-67
2022/05/01 04:17:38;;;;;;;15.47;10.37;;;;;;;9.67;70.08;102034.31;5078338;28;20386;-67
2022/05/01 04:20:08;;;;;;;11.63;10.10;;;;;;;10.13;69.44;102034.94;5078494;28;20480;-67
2022/05/01 04:22:41;;;;;;;16.30;10.70;;;;;;;9.91;69.51;102042.06;5078085;28;20461;-67
2022/05/01 04:25:17;;;;;;;17.93;10.73;;;;;;;9.82;70.21;102042.63;5078315;28;20470;-67
2022/05/01 04:27:44;;;;;;;12.23;10.30;;;;;;;9.94;69.28;102034.34;5078337;28;20415;-67
2022/05/01 04:30:11;;;;;;;17.40;11.00;;;;;;;9.74;70.22;102033.66;5078107;28;20403;-68
2022/05/01 04:32:49;;;;;;;12.60;10.53;;;;;;;9.88;70.29;102034.16;5078293;28;20435;-67
2022/05/01 04:35:29;;;;;;;11.80;10.60;;;;;;;9.96;69.93;102032.69;5078330;28;20407;-67
2022/05/01 04:38:07;;;;;;;11.43;10.33;;;;;;;9.71;69.79;102039.66;5078714;28;20403;-71
2022/05/01 04:40:46;;;;;;;14.30;12.37;;;;;;;9.56;70.64;102036.53;5080714;28;20428;-67
2022/05/01 04:43:19;;;;;;;13.10;10.20;;;;;;;9.74;70.15;102042.38;5079636;28;20414;-68
2022/05/01 04:45:49;;;;;;;13.33;10.97;;;;;;;9.50;70.48;102046.72;5078288;28;20907;-69
2022/05/01 04:48:15;;;;;;;12.87;11.53;;;;;;;9.57;69.75;102039.19;5078369;28;20411;-69
2022/05/01 04:50:41;;;;;;;7.30;6.60;;;;;;;12.04;71.93;102029.06;5078398;28;20430;-69
2022/05/01 04:53:09;;;;;;;16.73;10.17;;;;;;;11.50;63.10;102038.13;5076935;28;20812;-73
2022/05/01 04:55:36;;;;;;;12.00;10.77;;;;;;;10.84;64.99;102037.16;5078415;28;20547;-70
2022/05/01 04:58:01;;;;;;;11.70;9.40;;;;;;;10.76;65.12;102043.03;5077917;28;20431;-71
2022/05/01 05:00:26;;;;;;;12.47;10.73;;;;;;;10.84;65.12;102037.16;5078092;28;20723;-71
2022/05/01 05:02:53;;;;;;;13.97;10.27;;;;;;;10.42;66.96;102043.75;5078163;28;20180;-71
2022/05/01 05:05:19;;;;;;;11.00;9.87;;;;;;;10.61;66.75;102038.25;5077339;28;20470;-71
2022/05/01 05:07:46;;;;;;;10.67;9.57;;;;;;;10.28;66.70;102043.25;5078009;28;20488;-70
2022/05/01 05:10:12;;;;;;;13.20;10.67;;;;;;;10.35;67.39;102050.47;5078261;28;20411;-71
2022/05/01 05:12:38;;;;;;;12.40;10.60;;;;;;;10.40;67.40;102053.22;5077952;28;20419;-71
2022/05/01 05:15:08;;;;;;;11.60;10.50;;;;;;;10.45;66.30;102055.13;5079136;28;20484;-72
2022/05/01 05:17:34;;;;;;;11.27;9.90;;;;;;;10.15;67.99;102051.50;5082435;28;20403;-74
2022/05/01 05:20:00;;;;;;;12.67;10.93;;;;;;;10.55;67.30;102042.38;5081953;28;20402;-73
2022/05/01 05:22:26;;;;;;;12.27;10.43;;;;;;;10.71;65.90;102049.81;5081925;28;20192;-73
2022/05/01 05:24:51;;;;;;;10.97;9.50;;;;;;;11.05;66.00;102050.81;5082348;28;20433;-72
2022/05/01 05:27:20;;;;;;;10.80;9.80;;;;;;;12.89;60.50;102046.69;5081822;28;20583;-70
2022/05/01 05:29:45;;;;;;;11.23;8.80;;;;;;;13.99;56.09;102039.19;5081902;28;20575;-70
2022/05/01 05:32:11;;;;;;;9.27;8.37;;;;;;;15.76;50.60;102032.69;5081992;28;20415;-71
2022/05/01 05:34:36;;;;;;;7.90;7.10;;;;;;;15.79;50.46;102035.31;5081601;28;20169;-71
2022/05/01 05:37:01;;;;;;;8.53;7.63;;;;;;;16.51;48.31;102031.50;5081582;28;20165;-72
2022/05/01 05:39:27;;;;;;;9.87;7.30;;;;;;;16.48;47.83;102032.34;5087105;28;20445;-71
2022/05/01 05:41:52;;;;;;;7.50;6.70;;;;;;;17.23;46.80;102030.06;5082283;28;20173;-71
2022/05/01 05:44:17;;;;;;;7.47;6.77;;;;;;;17.62;46.42;102031.00;5081601;28;20207;-71
2022/05/01 05:46:43;;;;;;;7.53;6.77;;;;;;;17.74;45.12;102032.75;5081421;28;20245;-71
2022/05/01 05:49:08;;;;;;;7.73;6.73;;;;;;;17.74;45.09;102027.47;5081370;28;20177;-71
2022/05/01 05:51:33;;;;;;;7.40;6.70;;;;;;;18.12;43.19;102032.78;5081598;28;20165;-71
2022/05/01 05:53:59;;;;;;;6.90;6.30;;;;;;;17.82;43.86;102031.91;5080064;28;20169;-71
2022/05/01 05:56:24;;;;;;;7.47;6.50;;;;;;;18.54;42.59;102024.78;5077587;28;20554;-70
2022/05/01 05:58:50;;;;;;;8.40;5.83;;;;;;;18.62;42.94;102024.78;5081311;28;20192;-71
2022/05/01 06:01:15;;;;;;;6.83;5.93;;;;;;;19.12;40.39;102028.09;5080585;28;20477;-69
2022/05/01 06:03:41;;;;;;;6.70;5.60;;;;;;;19.20;41.28;102021.03;5080862;28;20172;-70
2022/05/01 06:06:06;;;;;;;8.30;5.70;;;;;;;19.32;40.45;102027.97;5081099;28;20197;-69
2022/05/01 06:08:33;;;;;;;7.03;5.67;;;;;;;19.03;41.99;102034.31;5081108;28;20561;-70
2022/05/01 06:10:58;;;;;;;7.40;5.43;;;;;;;20.17;39.48;102028.25;5080818;28;20418;-72
2022/05/01 06:13:24;;;;;;;5.60;5.03;;;;;;;18.99;40.82;102028.16;5081094;28;20437;-69
2022/05/01 06:15:49;;;;;;;7.10;5.00;;;;;;;19.49;40.40;102028.75;5080744;28;20565;-71
2022/05/01 06:18:14;;;;;;;5.87;5.30;;;;;;;19.44;40.70;102035.84;5080790;28;20263;-70
2022/05/01 06:20:40;;;;;;;7.30;5.43;;;;;;;18.12;42.92;102038.06;5081505;28;20169;-70
2022/05/01 06:23:06;;;;;;;7.23;5.10;;;;;;;19.48;40.47;102034.06;5080461;28;20193;-70
2022/05/01 06:25:31;;;;;;;7.07;5.17;;;;;;;18.85;40.78;102030.84;5080695;28;20590;-71
2022/05/01 06:27:57;;;;;;;5.97;5.43;;;;;;;19.84;40.16;102022.34;5079769;28;20214;-71
2022/05/01 06:30:22;;;;;;;6.10;5.30;;;;;;;19.99;38.75;102036.34;5080004;28;20580;-72
2022/05/01 06:32:48;;;;;;;7.50;5.90;;;;;;;21.19;37.40;102021.75;5080483;28;20234;-71
2022/05/01 06:35:14;;;;;;;6.10;5.50;;;;;;;20.63;37.73;102037.44;5080975;28;20170;-68
2022/05/01 06:37:40;;;;;;;10.80;5.40;;;;;;;18.95;40.18;102047.56;5079562;28;20419;-73
2022/05/01 06:40:06;;;;;;;7.43;5.70;;;;;;;19.53;39.24;102035.78;5080019;28;20426;-73
2022/05/01 06:42:32;;;;;;;5.77;5.17;;;;;;;18.94;39.93;102037.00;5075006;28;20539;-70
2022/05/01 06:44:57;;;;;;;7.17;4.67;;;;;;;19.05;39.81;102039.59;5072537;28;20467;-69
2022/05/01 06:47:22;;;;;;;8.10;5.00;;;;;;;19.07;39.57;102038.69;5065124;28;20943;-70
2022/05/01 06:49:48;;;;;;;6.80;5.03;;;;;;;19.23;39.63;102043.91;5074710;28;20177;-69
2022/05/01 06:52:13;;;;;;;5.47;5.03;;;;;;;19.55;39.26;102040.19;5073539;28;20223;-72
2022/05/01 06:54:39;;;;;;;6.00;5.00;;;;;;;19.35;39.37;102034.16;5074305;28;20237;-70
2022/05/01 06:57:05;;;;;;;5.33;4.50;;;;;;;20.10;38.05;102023.88;5079871;28;20221;-69
2022/05/01 06:59:30;;;;;;;6.63;4.27;;;;;;;18.62;39.69;102032.72;5077143;28;20517;-69
2022/05/01 07:02:00;;;;;;;5.00;4.23;;;;;;;19.03;38.93;102026.38;5079143;28;20191;-69
2022/05/01 07:04:26;;;;;;;5.90;4.97;;;;;;;19.59;38.01;102024.28;5078618;28;20212;-69
2022/05/01 07:06:53;;;;;;;6.10;5.00;;;;;;;19.32;38.44;102038.56;5061517;28;20489;-70
2022/05/01 07:09:19;;;;;;;5.93;5.40;;;;;;;18.77;39.54;102040.56;5078008;28;20509;-72
2022/05/01 07:11:44;;;;;;;4.93;4.50;;;;;;;20.19;37.48;102023.78;5063697;28;20481;-71
2022/05/01 07:14:10;;;;;;;5.10;4.60;;;;;;;19.01;38.93;102034.34;5060534;28;20169;-72
2022/05/01 07:16:35;;;;;;;5.87;5.37;;;;;;;19.32;39.04;102030.63;5042040;28;20184;-70
2022/05/01 07:19:01;;;;;;;6.47;4.53;;;;;;;19.23;38.45;102033.31;5059892;28;20173;-70
2022/05/01 07:21:26;;;;;;;7.87;4.60;;;;;;;21.01;35.02;102032.59;5059259;28;20613;-70
2022/05/01 07:23:51;;;;;;;5.70;5.20;;;;;;;20.84;35.72;102033.69;5074025;28;20239;-74
2022/05/01 07:26:18;;;;;;;5.50;5.00;;;;;;;21.00;35.83;102031.72;5073995;28;20197;-67
2022/05/01 07:28:43;;;;;;;6.47;4.83;;;;;;;21.31;34.78;102031.31;5078737;28;20173;-70
2022/05/01 07:31:08;;;;;;;5.70;5.07;;;;;;;20.90;36.21;102040.69;5078134;28;20419;-69
2022/05/01 07:33:34;;;;;;;6.57;5.90;;;;;;;21.38;34.30;102037.41;5070597;28;20173;-69
2022/05/01 07:36:00;;;;;;;5.80;5.00;;;;;;;21.74;33.68;102035.06;5077195;28;20177;-70
2022/05/01 07:38:26;;;;;;;8.40;4.93;;;;;;;19.61;36.83;102045.44;5069061;28;20185;-67
2022/05/01 07:40:53;;;;;;;6.20;5.20;;;;;;;20.39;35.97;102043.91;5070873;28;20866;-71
2022/05/01 07:43:19;;;;;;;5.60;5.03;;;;;;;20.66;35.38;102048.03;5076502;28;20267;-72
2022/05/01 07:45:44;;;;;;;6.03;5.37;;;;;;;20.61;35.10;102043.69;5066265;28;20483;-71
2022/05/01 07:48:10;;;;;;;5.30;4.90;;;;;;;19.93;36.39;102046.97;5074482;28;20201;-72
2022/05/01 07:50:35;;;;;;;5.20;4.80;;;;;;;20.88;34.35;102047.78;5065119;28;20260;-72
2022/05/01 07:53:00;;;;;;;6.37;5.20;;;;;;;19.87;35.88;102044.41;5076224;28;20173;-72
2022/05/01 07:55:26;;;;;;;6.27;5.60;;;;;;;19.89;36.49;102045.25;5076939;28;20160;-72
2022/05/01 07:57:51;;;;;;;8.70;5.67;;;;;;;19.95;36.89;102039.91;5073450;28;20253;-72
2022/05/01 08:00:17;;;;;;;7.27;5.27;;;;;;;20.59;35.32;102045.44;5077540;28;20184;-71
2022/05/01 08:05:29;;;;;;;7.27;5.30;;;;;;;22.20;32.51;102034.31;5078022;28;20478;-73
2022/05/01 08:07:56;;;;;;;6.00;5.40;;;;;;;20.48;34.85;102042.91;5077819;28;20480;-73
2022/05/01 08:10:21;;;;;;;5.23;4.70;;;;;;;22.79;32.07;102033.19;5078038;28;20465;-73
2022/05/01 08:12:46;;;;;;;7.20;5.33;;;;;;;21.18;33.74;102035.91;5077112;28;20458;-72
2022/05/01 08:15:15;;;;;;;4.73;4.27;;;;;;;21.17;32.86;102034.13;5077041;28;20173;-71
2022/05/01 08:17:44;;;;;;;5.30;4.80;;;;;;;21.44;32.72;102036.41;5077376;28;20183;-74
2022/05/01 08:23:05;;;;;;;5.20;4.27;;;;;;;23.01;30.16;102030.06;5062122;28;20822;-73
2022/05/01 08:25:31;;;;;;;5.43;4.90;;;;;;;21.70;31.10;102039.59;5071250;28;20502;-72
2022/05/01 08:27:56;;;;;;;4.60;4.20;;;;;;;21.04;32.76;102043.19;5073630;28;20893;-73
2022/05/01 08:30:21;;;;;;;4.80;4.20;;;;;;;22.54;30.53;102031.03;5077999;28;20211;-72
2022/05/01 08:32:46;;;;;;;4.57;4.17;;;;;;;21.73;30.37;102036.00;5080333;28;20177;-71
2022/05/01 08:35:12;;;;;;;5.43;4.50;;;;;;;22.49;30.08;102030.25;5075227;28;20454;-74
2022/05/01 08:37:37;;;;;;;8.53;7.17;;;;;;;22.80;29.71;102026.97;5061566;28;20173;-73
2022/05/01 08:40:03;;;;;;;4.93;4.43;;;;;;;21.70;31.38;102039.59;5073688;28;20244;-73
2022/05/01 08:42:29;;;;;;;5.03;4.23;;;;;;;20.21;33.12;102038.78;5077434;28;20173;-72
2022/05/01 08:44:55;;;;;;;4.30;3.90;;;;;;;21.33;31.73;102036.59;5077164;28;20211;-70
2022/05/01 08:47:33;;;;;;;4.70;4.17;;;;;;;20.85;32.69;102038.09;5077138;28;20450;-73
2022/05/01 08:49:59;;;;;;;8.57;5.70;;;;;;;23.29;29.59;102022.38;5076998;28;20169;-71
2022/05/01 08:52:26;;;;;;;6.30;5.70;;;;;;;22.35;30.21;102019.00;5078457;28;20741;-70
2022/05/01 08:54:52;;;;;;;4.43;3.90;;;;;;;20.21;32.71;102033.50;5077879;28;20465;-69
2022/05/01 08:57:21;;;;;;;4.97;4.17;;;;;;;19.85;33.59;102029.41;5077078;28;20442;-70
2022/05/01 08:59:51;;;;;;;5.13;4.47;;;;;;;21.63;31.60;102029.94;5078453;28;20403;-70
2022/05/01 09:02:16;;;;;;;4.30;3.80;;;;;;;22.12;30.68;102020.28;5077117;28;20782;-71
2022/05/01 09:04:41;;;;;;;4.17;3.77;;;;;;;22.11;28.92;102015.88;5078192;28;20463;-71
2022/05/01 09:07:07;;;;;;;5.77;3.53;;;;;;;22.08;28.56;102018.56;5077693;28;20168;-70
2022/05/01 09:09:32;;;;;;;4.37;3.97;;;;;;;23.16;27.99;102016.44;5078005;28;20470;-70
2022/05/01 09:14:42;;;;;;;5.20;3.20;;;;;;;21.11;29.90;102017.47;5077615;28;20804;-70
2022/05/01 09:17:21;;;;;;;3.87;3.57;;;;;;;21.37;29.07;102014.41;5077820;28;20404;-70
2022/05/01 09:19:53;;;;;;;5.70;3.80;;;;;;;21.62;28.49;102011.41;5077744;28;20172;-70
2022/05/01 09:22:20;;;;;;;4.20;3.57;;;;;;;20.80;29.28;102028.47;5077856;28;20414;-73
2022/05/01 09:24:45;;;;;;;4.13;3.30;;;;;;;19.95;28.72;102026.69;5077616;28;20593;-71
2022/05/01 09:27:40;;;;;;;4.40;4.00;;;;;;;19.52;29.60;102034.03;5077721;28;20498;-71
2022/05/01 09:30:08;;;;;;;3.90;3.50;;;;;;;19.58;28.34;102030.47;5064707;28;20181;-71
2022/05/01 09:32:36;;;;;;;6.03;3.30;;;;;;;19.00;28.79;102024.63;5077619;28;20499;-70
2022/05/01 09:35:01;;;;;;;4.90;3.37;;;;;;;18.54;29.47;102024.78;5078416;28;20425;-70
2022/05/01 09:37:26;;;;;;;3.13;2.93;;;;;;;18.03;30.47;102030.16;5077563;28;20407;-71
2022/05/01 09:39:52;;;;;;;4.70;4.30;;;;;;;19.10;29.59;102025.47;5078054;28;20435;-70
2022/05/01 09:42:19;;;;;;;4.57;4.07;;;;;;;18.60;30.59;102029.19;5077622;28;20169;-69
2022/05/01 09:45:02;;;;;;;3.90;3.60;;;;;;;18.32;30.86;102022.22;5077052;28;20745;-69
2022/05/01 09:47:38;;;;;;;3.93;3.30;;;;;;;18.16;32.38;102025.75;5080902;28;20726;-69
2022/05/01 09:50:05;;;;;;;5.87;3.43;;;;;;;18.52;30.67;102021.25;5076892;28;20847;-70
2022/05/01 09:52:58;;;;;;;3.80;3.37;;;;;;;17.42;33.58;102028.34;5077355;28;20427;-69
2022/05/01 09:55:25;;;;;;;5.30;3.50;;;;;;;18.16;31.67;102018.72;5077476;28;20411;-70
2022/05/01 09:58:03;;;;;;;3.50;3.20;;;;;;;17.49;32.47;102023.09;5077237;28;20855;-71
2022/05/01 10:00:39;;;;;;;4.67;3.40;;;;;;;17.80;33.03;102028.38;5077540;28;20410;-72
2022/05/01 10:03:29;;;;;;;3.80;3.33;;;;;;;17.28;32.58;102021.28;5080914;28;20414;-74
2022/05/01 10:05:57;;;;;;;4.67;3.47;;;;;;;17.67;32.59;102016.06;5081223;28;20451;-73
2022/05/01 10:08:23;;;;;;;3.97;3.63;;;;;;;17.33;33.28;102026.56;5081040;28;20667;-68
2022/05/01 10:10:58;;;;;;;5.70;3.97;;;;;;;16.97;33.81;102030.88;5080896;28;20514;-69
2022/05/01 10:13:25;;;;;;;4.23;3.60;;;;;;;17.40;35.12;102020.44;5080925;28;20164;-70
2022/05/01 10:15:51;;;;;;;3.90;3.40;;;;;;;17.15;33.81;102020.34;5081161;28;20408;-69
2022/05/01 10:18:17;;;;;;;3.30;3.00;;;;;;;17.83;31.99;102017.84;5081173;28;20410;-70
2022/05/01 10:20:43;;;;;;;5.30;4.47;;;;;;;17.33;31.97;102024.81;5063677;28;20390;-72
2022/05/01 10:23:10;;;;;;;5.33;4.80;;;;;;;17.32;33.16;102016.91;5080605;28;20165;-70
2022/05/01 10:25:37;;;;;;;4.73;3.90;;;;;;;17.49;33.32;102023.09;5080721;28;20181;-70
2022/05/01 10:28:12;;;;;;;5.43;3.57;;;;;;;17.84;33.15;102016.06;5080462;28;20396;-70
2022/05/01 10:34:10;;;;;;;4.87;4.47;;;;;;;17.58;32.81;102014.31;5080647;28;20403;-70
2022/05/01 10:37:01;;;;;;;4.00;3.30;;;;;;;17.34;32.42;102010.75;5080962;28;20381;-70
2022/05/01 10:39:33;;;;;;;3.80;3.50;;;;;;;17.75;32.40;102011.69;5079474;28;20786;-70
2022/05/01 10:41:59;;;;;;;3.60;3.30;;;;;;;17.46;31.63;102004.63;5080007;28;20679;-71
2022/05/01 10:44:29;;;;;;;6.47;3.60;;;;;;;17.61;31.53;102003.75;5079247;28;20455;-69
2022/05/01 10:46:55;;;;;;;3.87;3.50;;;;;;;17.15;31.68;101998.41;5080126;28;20221;-71
2022/05/01 10:49:35;;;;;;;3.60;3.30;;;;;;;17.51;28.73;102002.88;5079940;28;20498;-71
2022/05/01 10:52:33;;;;;;;3.60;3.30;;;;;;;17.38;28.97;101998.44;5080116;28;20200;-69
2022/05/01 10:55:01;;;;;;;5.00;3.40;;;;;;;17.21;30.00;101998.44;5046666;28;20513;-69
2022/05/01 10:57:26;;;;;;;3.50;3.20;;;;;;;17.86;28.63;102003.78;5080101;28;20411;-73
2022/05/01 11:00:15;;;;;;;3.30;3.00;;;;;;;18.06;28.30;101995.84;5080405;28;20448;-73
2022/05/01 11:02:42;;;;;;;3.10;2.90;;;;;;;18.03;28.30;102001.13;5079986;28;20177;-72
2022/05/01 11:05:10;;;;;;;3.33;3.03;;;;;;;16.17;31.03;102008.47;5079703;28;20611;-70
2022/05/01 11:07:37;;;;;;;3.80;3.30;;;;;;;16.47;31.63;102006.88;5079777;28;20422;-71
2022/05/01 11:10:05;;;;;;;4.60;4.03;;;;;;;17.19;31.32;101999.31;5079850;28;20393;-70
2022/05/01 11:12:32;;;;;;;5.00;3.57;;;;;;;17.64;31.71;101990.59;5069105;28;20813;-71
2022/05/01 11:15:08;;;;;;;4.27;3.87;;;;;;;17.46;32.54;101996.69;5077003;28;20816;-69
2022/05/01 11:17:36;;;;;;;3.80;3.50;;;;;;;17.50;32.24;101998.47;5059320;28;20412;-69
2022/05/01 11:20:24;;;;;;;3.73;3.33;;;;;;;17.46;32.52;101994.06;5066204;28;20754;-69
2022/05/01 11:22:50;;;;;;;3.70;3.43;;;;;;;17.21;32.36;101987.91;5079583;28;20393;-70
2022/05/01 11:25:19;;;;;;;4.23;3.83;;;;;;;17.24;32.12;101994.91;5079440;28;20458;-69
2022/05/01 11:27:52;;;;;;;4.47;3.63;;;;;;;17.30;32.45;101987.03;5078584;28;20402;-70
2022/05/01 11:30:27;;;;;;;3.80;3.50;;;;;;;17.03;32.60;101988.72;5079263;28;20694;-69
2022/05/01 11:33:02;;;;;;;4.20;3.30;;;;;;;16.96;32.64;101989.56;5087455;28;20409;-70
2022/05/01 11:36:06;;;;;;;5.23;3.70;;;;;;;17.47;33.20;101987.06;5079700;28;20673;-70
2022/05/01 11:38:37;;;;;;;3.37;3.17;;;;;;;16.87;32.63;101997.41;5078703;28;20385;-70
2022/05/01 11:41:03;;;;;;;3.50;3.20;;;;;;;17.27;32.08;101987.03;5079049;28;20656;-70
2022/05/01 11:43:29;;;;;;;3.80;3.50;;;;;;;17.22;32.18;101984.38;5079038;28;20485;-70
2022/05/01 11:45:56;;;;;;;3.60;3.30;;;;;;;17.06;32.68;101991.38;5069543;28;20336;-69
2022/05/01 11:48:22;;;;;;;3.80;3.30;;;;;;;17.28;33.50;101983.53;5059254;28;20420;-71